createdAt,value
2019-05-20T00:00:42.234Z,3.77
2019-05-20T00:03:11.206Z,4.10
2019-05-20T00:05:40.245Z,3.53
2019-05-20T00:08:12.687Z,3.87
2019-05-20T00:10:51.310Z,4.00
2019-05-20T00:13:21.288Z,3.90
2019-05-20T00:15:50.745Z,3.60
2019-05-20T00:18:22.469Z,3.60
2019-05-20T00:20:51.477Z,3.37
2019-05-20T00:23:26.723Z,3.43
2019-05-20T00:25:55.639Z,3.67
2019-05-20T00:28:27.872Z,3.60
2019-05-20T00:31:00.167Z,3.67
2019-05-20T00:33:35.140Z,3.70
2019-05-20T00:36:04.246Z,4.30
2019-05-20T00:38:34.909Z,3.53
2019-05-20T00:41:04.283Z,4.00
2019-05-20T00:43:33.525Z,3.80
2019-05-20T00:46:02.822Z,3.90
2019-05-20T00:48:38.375Z,4.10
2019-05-20T00:51:08.598Z,3.60
2019-05-20T00:53:41.905Z,3.73
2019-05-20T00:56:36.211Z,3.70
2019-05-20T00:59:21.163Z,3.57
2019-05-20T01:01:50.399Z,3.57
2019-05-20T01:04:19.440Z,3.47
2019-05-20T01:06:48.602Z,4.20
2019-05-20T01:09:20.834Z,3.70
2019-05-20T01:11:50.134Z,3.80
2019-05-20T01:14:19.537Z,3.77
2019-05-20T01:20:21.310Z,4.20
2019-05-20T01:22:51.698Z,3.80
2019-05-20T01:26:02.599Z,3.83
2019-05-20T01:28:31.988Z,4.07
2019-05-20T01:31:09.514Z,4.20
2019-05-20T01:38:15.699Z,4.07
2019-05-20T01:40:46.857Z,4.33
2019-05-20T01:43:16.942Z,4.13
2019-05-20T01:45:52.423Z,4.47
2019-05-20T01:48:22.060Z,4.53
2019-05-20T01:50:53.202Z,5.23
2019-05-20T01:53:23.385Z,5.33
2019-05-20T01:56:06.073Z,4.60
2019-05-20T01:58:44.053Z,5.27
2019-05-20T02:01:17.744Z,5.33
2019-05-20T02:10:17.818Z,6.67
2019-05-20T02:12:50.463Z,7.50
2019-05-20T02:19:29.996Z,7.13
2019-05-20T02:22:21.016Z,7.47
2019-05-20T02:29:12.287Z,8.17
2019-05-20T02:31:42.189Z,8.87
2019-05-20T02:34:40.079Z,9.17
2019-05-20T02:37:19.130Z,9.50
2019-05-20T03:14:44.930Z,14.30
2019-05-20T03:17:29.520Z,16.10
2019-05-20T03:20:06.194Z,16.30
2019-05-20T03:25:48.348Z,17.03
2019-05-20T03:32:16.420Z,17.40
2019-05-20T03:34:58.779Z,16.80
2019-05-20T03:42:11.571Z,18.90
2019-05-20T04:13:05.545Z,26.30
2019-05-20T04:19:15.176Z,27.07
2019-05-20T04:25:58.264Z,27.30
2019-05-20T04:29:05.635Z,29.43
2019-05-20T04:45:12.223Z,29.50
2019-05-20T04:48:13.179Z,29.80
2019-05-20T04:54:07.957Z,28.93
2019-05-20T04:57:27.643Z,29.60
2019-05-20T05:03:57.479Z,30.57
2019-05-20T05:21:46.883Z,29.53
2019-05-20T05:47:36.525Z,28.17
2019-05-20T05:50:07.629Z,27.37
2019-05-20T05:52:36.864Z,28.97
2019-05-20T05:55:05.935Z,29.20
2019-05-20T05:57:34.950Z,28.33
2019-05-20T06:00:04.829Z,30.37
2019-05-20T06:02:33.740Z,29.63
2019-05-20T06:05:03.070Z,27.67
2019-05-20T06:07:32.308Z,28.87
2019-05-20T06:10:07.045Z,27.20
2019-05-20T06:12:36.041Z,29.97
2019-05-20T06:15:05.748Z,30.82
2019-05-20T06:17:40.983Z,31.60
2019-05-20T06:20:15.396Z,32.50
2019-05-20T06:22:47.623Z,32.23
2019-05-20T06:25:17.831Z,31.20
2019-05-20T06:27:46.882Z,33.70
2019-05-20T06:30:16.693Z,31.03
2019-05-20T06:32:46.123Z,33.87
2019-05-20T06:35:28.969Z,34.50
2019-05-20T06:37:59.670Z,35.90
2019-05-20T06:40:41.473Z,33.37
2019-05-20T06:43:13.590Z,36.67
2019-05-20T06:45:47.482Z,35.20
2019-05-20T06:48:16.600Z,34.93
2019-05-20T06:50:51.959Z,35.73
2019-05-20T06:53:20.953Z,33.97
2019-05-20T06:55:50.081Z,36.00
2019-05-20T06:58:21.199Z,37.07
2019-05-20T07:00:50.287Z,37.83
2019-05-20T07:03:19.517Z,36.73
2019-05-20T07:05:49.591Z,35.93
2019-05-20T07:08:19.067Z,34.90
2019-05-20T07:10:48.538Z,36.77
2019-05-20T07:13:18.905Z,37.13
2019-05-20T07:15:50.402Z,37.50
2019-05-20T07:18:29.794Z,35.93
2019-05-20T07:20:59.309Z,37.40
2019-05-20T07:23:28.723Z,35.73
2019-05-20T07:25:57.679Z,35.87
2019-05-20T07:28:27.507Z,37.90
2019-05-20T07:30:56.485Z,35.80
2019-05-20T07:33:25.402Z,36.13
2019-05-20T07:35:54.683Z,36.43
2019-05-20T07:38:23.842Z,33.60
2019-05-20T07:40:52.962Z,33.97
2019-05-20T07:43:22.289Z,32.93
2019-05-20T07:45:51.753Z,31.10
2019-05-20T07:48:21.354Z,32.63
2019-05-20T07:50:51.105Z,31.87
2019-05-20T07:53:21.383Z,31.03
2019-05-20T07:56:05.532Z,32.20
2019-05-20T07:58:37.367Z,32.00
2019-05-20T08:01:06.835Z,32.73
2019-05-20T08:03:38.519Z,32.70
2019-05-20T08:06:07.302Z,32.33
2019-05-20T08:08:41.771Z,30.63
2019-05-20T08:11:09.877Z,29.63
2019-05-20T08:14:15.423Z,29.80
2019-05-20T08:16:19.886Z,29.47
2019-05-20T08:18:52.934Z,27.67
2019-05-20T08:21:38.641Z,26.67
2019-05-20T08:24:10.561Z,25.93
2019-05-20T08:26:43.287Z,25.43
2019-05-20T08:29:15.843Z,25.20
2019-05-20T08:31:48.574Z,22.63
2019-05-20T08:34:17.907Z,20.93
2019-05-20T08:36:47.465Z,22.20
2019-05-20T08:39:16.989Z,21.23
2019-05-20T08:41:47.819Z,21.07
2019-05-20T08:44:17.707Z,21.17
2019-05-20T08:46:46.850Z,20.20
2019-05-20T08:49:27.038Z,20.47
2019-05-20T08:51:56.357Z,18.60
2019-05-20T08:54:25.643Z,19.37
2019-05-20T08:56:55.626Z,18.43
2019-05-20T08:59:24.999Z,16.40
2019-05-20T09:01:53.955Z,17.23
2019-05-20T09:04:24.118Z,16.47
2019-05-20T09:06:53.599Z,16.03
2019-05-20T09:09:22.783Z,15.27
2019-05-20T09:11:52.102Z,15.97
2019-05-20T09:14:21.165Z,15.23
2019-05-20T09:16:50.357Z,14.67
2019-05-20T09:19:19.858Z,15.07
2019-05-20T09:21:49.192Z,14.33
2019-05-20T09:24:19.218Z,13.30
2019-05-20T09:26:48.484Z,13.83
2019-05-20T09:29:21.305Z,14.03
2019-05-20T09:31:53.536Z,13.83
2019-05-20T09:34:22.889Z,13.03
2019-05-20T09:36:52.243Z,12.93
2019-05-20T09:39:21.427Z,12.37
2019-05-20T09:41:50.598Z,12.53
2019-05-20T09:44:20.171Z,12.73
2019-05-20T09:46:49.211Z,11.97
2019-05-20T09:49:18.430Z,13.27
2019-05-20T09:51:47.534Z,12.60
2019-05-20T09:54:17.268Z,11.87
2019-05-20T09:56:46.678Z,12.03
2019-05-20T09:59:16.451Z,11.10
2019-05-20T10:01:45.966Z,11.83
2019-05-20T10:04:15.666Z,12.27
2019-05-20T10:06:45.236Z,12.00
2019-05-20T10:09:14.882Z,12.37
2019-05-20T10:11:44.208Z,13.63
2019-05-20T10:14:14.411Z,11.93
2019-05-20T10:17:18.599Z,11.97
2019-05-20T10:19:48.027Z,13.00
2019-05-20T10:22:18.122Z,12.33
2019-05-20T10:24:54.010Z,13.93
2019-05-20T10:27:23.780Z,13.90
2019-05-20T10:29:53.283Z,14.03
2019-05-20T10:32:23.058Z,12.40
2019-05-20T10:34:52.724Z,13.37
2019-05-20T10:37:22.312Z,12.73
2019-05-20T10:39:51.677Z,13.30
2019-05-20T10:42:26.805Z,13.43
2019-05-20T10:44:56.081Z,13.00
2019-05-20T10:47:25.349Z,13.57
2019-05-20T10:49:54.427Z,14.10
2019-05-20T10:52:23.569Z,13.40
2019-05-20T10:54:52.693Z,14.33
2019-05-20T10:57:21.716Z,15.13
2019-05-20T10:59:50.989Z,15.67
2019-05-20T11:02:20.168Z,17.27
2019-05-20T11:04:49.125Z,16.37
2019-05-20T11:07:24.233Z,16.10
2019-05-20T11:09:56.899Z,16.53
2019-05-20T11:12:26.028Z,16.20
2019-05-20T11:14:56.850Z,17.33
2019-05-20T11:17:26.181Z,17.70
2019-05-20T11:19:55.872Z,17.90
2019-05-20T11:22:24.907Z,18.00
2019-05-20T11:24:54.070Z,18.77
2019-05-20T11:27:23.819Z,19.03
2019-05-20T11:29:53.836Z,20.07
2019-05-20T11:32:22.874Z,20.17
2019-05-20T11:34:51.784Z,22.57
2019-05-20T11:37:24.960Z,21.60
2019-05-20T11:40:14.807Z,23.47
2019-05-20T11:42:46.656Z,23.13
2019-05-20T11:45:22.036Z,23.23
2019-05-20T11:48:32.233Z,24.07
2019-05-20T11:54:06.609Z,25.10
2019-05-20T11:56:36.270Z,25.33
2019-05-20T11:59:09.701Z,24.50
2019-05-20T12:01:40.863Z,25.53
2019-05-20T12:04:17.636Z,26.53
2019-05-20T12:07:22.731Z,25.73
2019-05-20T12:09:52.578Z,26.47
2019-05-20T12:12:26.483Z,29.47
2019-05-20T12:15:00.312Z,27.33
2019-05-20T12:17:36.878Z,27.47
2019-05-20T12:20:10.409Z,29.00
2019-05-20T12:22:38.795Z,27.80
2019-05-20T12:25:08.090Z,28.27
2019-05-20T12:27:37.689Z,28.93
2019-05-20T12:30:07.638Z,28.80
2019-05-20T12:32:40.418Z,29.97
2019-05-20T12:35:10.209Z,30.00
2019-05-20T12:37:40.208Z,29.33
2019-05-20T12:40:14.792Z,29.70
2019-05-20T12:42:47.036Z,30.83
2019-05-20T12:45:16.877Z,30.93
2019-05-20T12:47:46.250Z,31.30
2019-05-20T12:50:20.098Z,30.80
2019-05-20T12:52:49.742Z,30.27
2019-05-20T12:55:22.360Z,30.03
2019-05-20T12:58:00.063Z,29.63
2019-05-20T13:00:29.172Z,30.17
2019-05-20T13:03:00.663Z,31.43
2019-05-20T13:05:29.951Z,32.93
2019-05-20T13:07:59.408Z,33.70
2019-05-20T13:10:31.647Z,33.90
2019-05-20T13:13:00.403Z,32.13
2019-05-20T13:15:35.212Z,32.40
2019-05-20T13:18:03.904Z,32.37
2019-05-20T13:20:35.604Z,33.10
2019-05-20T13:23:10.433Z,32.37
2019-05-20T13:25:38.505Z,33.80
2019-05-20T13:28:07.427Z,33.23
2019-05-20T13:30:36.359Z,34.47
2019-05-20T13:33:05.372Z,35.23
2019-05-20T13:35:34.502Z,33.87
2019-05-20T13:38:03.828Z,35.50
2019-05-20T13:40:45.711Z,34.37
2019-05-20T13:43:03.432Z,35.83
2019-05-20T13:45:32.448Z,36.73
2019-05-20T13:48:02.360Z,35.70
2019-05-20T13:50:31.545Z,35.93
2019-05-20T13:53:00.761Z,36.40
2019-05-20T13:55:29.729Z,35.40
2019-05-20T13:58:00.214Z,36.47
2019-05-20T14:00:29.572Z,36.60
2019-05-20T14:02:58.651Z,37.70
2019-05-20T14:05:27.743Z,36.70
2019-05-20T14:07:57.181Z,36.87
2019-05-20T14:10:26.579Z,36.63
2019-05-20T14:12:55.453Z,36.60
2019-05-20T14:15:24.825Z,36.23
2019-05-20T14:17:53.746Z,37.17
2019-05-20T14:20:22.770Z,35.47
2019-05-20T14:22:51.884Z,36.13
2019-05-20T14:25:22.315Z,36.70
2019-05-20T14:27:52.596Z,36.33
2019-05-20T14:30:23.147Z,37.90
2019-05-20T14:32:52.107Z,36.10
2019-05-20T14:35:21.073Z,37.37
2019-05-20T14:37:50.115Z,36.57
2019-05-20T14:40:19.414Z,36.90
2019-05-20T14:42:49.061Z,37.33
2019-05-20T14:45:18.193Z,39.37
2019-05-20T14:47:47.621Z,37.37
2019-05-20T14:50:18.751Z,38.93
2019-05-20T14:52:48.540Z,39.70
2019-05-20T14:55:17.607Z,39.47
2019-05-20T14:57:46.592Z,38.37
2019-05-20T15:00:15.926Z,38.77
2019-05-20T15:02:44.867Z,37.03
2019-05-20T15:05:13.896Z,39.27
2019-05-20T15:07:42.914Z,39.33
2019-05-20T15:10:12.376Z,38.43
2019-05-20T15:12:41.740Z,38.27
2019-05-20T15:15:11.067Z,40.10
2019-05-20T15:17:45.393Z,38.17
2019-05-20T15:20:14.778Z,39.77
2019-05-20T15:22:43.955Z,39.70
2019-05-20T15:25:13.250Z,40.20
2019-05-20T15:27:42.341Z,39.83
2019-05-20T15:30:12.192Z,40.40
2019-05-20T15:32:44.768Z,40.80
2019-05-20T15:35:13.783Z,41.47
2019-05-20T15:37:43.091Z,40.47
2019-05-20T15:40:15.230Z,39.53
2019-05-20T15:42:44.220Z,39.13
2019-05-20T15:45:13.578Z,38.77
2019-05-20T15:47:42.684Z,40.47
2019-05-20T15:50:11.736Z,41.27
2019-05-20T15:52:40.762Z,41.13
2019-05-20T15:55:12.530Z,40.07
2019-05-20T15:57:46.527Z,39.90
2019-05-20T16:00:15.743Z,39.57
2019-05-20T16:02:44.940Z,40.70
2019-05-20T16:05:14.055Z,40.47
2019-05-20T16:07:45.888Z,41.40
2019-05-20T16:10:24.110Z,41.37
2019-05-20T16:12:53.219Z,41.03
2019-05-20T16:15:28.551Z,40.10
2019-05-20T16:17:57.691Z,40.17
2019-05-20T16:20:27.494Z,39.37
2019-05-20T16:22:56.679Z,40.70
2019-05-20T16:25:25.735Z,40.67
2019-05-20T16:27:54.802Z,41.43
2019-05-20T16:30:24.305Z,40.77
2019-05-20T16:32:53.343Z,42.57
2019-05-20T16:35:23.055Z,38.97
2019-05-20T16:37:52.073Z,40.17
2019-05-20T16:40:21.836Z,41.73
2019-05-20T16:42:54.465Z,41.07
2019-05-20T16:45:23.617Z,40.53
2019-05-20T16:47:55.324Z,41.67
2019-05-20T16:50:24.622Z,41.13
2019-05-20T16:52:55.026Z,39.90
2019-05-20T16:55:23.983Z,40.63
2019-05-20T16:57:53.071Z,39.87
2019-05-20T17:00:31.377Z,41.60
2019-05-20T17:02:52.922Z,41.00
2019-05-20T17:05:22.283Z,39.20
2019-05-20T17:07:51.330Z,39.70
2019-05-20T17:10:25.374Z,38.07
2019-05-20T17:13:01.294Z,39.60
2019-05-20T17:15:30.775Z,38.53
2019-05-20T17:17:59.908Z,37.97
2019-05-20T17:20:29.134Z,37.07
2019-05-20T17:22:58.351Z,37.07
2019-05-20T17:25:28.040Z,37.03
2019-05-20T17:27:57.163Z,36.47
2019-05-20T17:30:26.197Z,34.80
2019-05-20T17:32:55.379Z,34.50
2019-05-20T17:35:27.150Z,32.67
2019-05-20T17:37:57.649Z,34.50
2019-05-20T17:40:26.713Z,35.33
2019-05-20T17:42:58.859Z,34.20
2019-05-20T17:45:28.008Z,33.67
2019-05-20T17:47:57.070Z,34.07
2019-05-20T17:50:26.454Z,36.67
2019-05-20T17:52:57.745Z,34.97
2019-05-20T17:55:27.067Z,34.80
2019-05-20T17:57:59.499Z,34.90
2019-05-20T18:00:29.038Z,36.77
2019-05-20T18:03:07.857Z,35.30
2019-05-20T18:05:36.858Z,36.17
2019-05-20T18:08:06.374Z,37.77
2019-05-20T18:10:35.479Z,37.03
2019-05-20T18:13:07.454Z,36.50
2019-05-20T18:15:36.414Z,36.97
2019-05-20T18:18:07.059Z,38.07
2019-05-20T18:20:42.811Z,38.20
2019-05-20T18:23:11.890Z,38.47
2019-05-20T18:25:41.409Z,37.53
2019-05-20T18:28:10.502Z,39.03
2019-05-20T18:30:40.379Z,41.10
2019-05-20T18:33:37.471Z,39.50
2019-05-20T18:35:57.638Z,39.60
2019-05-20T18:38:27.254Z,38.90
2019-05-20T18:40:56.296Z,41.30
2019-05-20T18:43:28.244Z,40.30
2019-05-20T18:45:57.618Z,40.93
2019-05-20T18:48:27.302Z,39.63
2019-05-20T18:50:56.298Z,40.80
2019-05-20T18:53:25.325Z,38.10
2019-05-20T18:55:58.314Z,40.17
2019-05-20T18:58:27.571Z,41.83
2019-05-20T19:00:56.953Z,41.27
2019-05-20T19:03:26.926Z,41.13
2019-05-20T19:05:59.453Z,41.90
2019-05-20T19:08:31.648Z,42.10
2019-05-20T19:11:06.815Z,41.40
2019-05-20T19:13:35.983Z,43.07
2019-05-20T19:16:05.168Z,41.80
2019-05-20T19:18:37.408Z,43.20
2019-05-20T19:21:06.518Z,42.90
2019-05-20T19:23:35.619Z,42.80
2019-05-20T19:26:07.639Z,45.07
2019-05-20T19:28:37.013Z,44.70
2019-05-20T19:31:16.114Z,43.90
2019-05-20T19:34:19.552Z,44.03
2019-05-20T19:36:54.747Z,44.70
2019-05-20T19:39:24.386Z,45.33
2019-05-20T19:41:53.900Z,46.07
2019-05-20T19:44:23.717Z,45.47
2019-05-20T19:46:54.705Z,47.63
2019-05-20T19:49:25.025Z,45.63
2019-05-20T19:51:56.912Z,46.57
2019-05-20T19:54:32.503Z,47.27
2019-05-20T19:57:13.823Z,48.60
2019-05-20T19:59:43.434Z,51.07
2019-05-20T20:02:18.156Z,47.30
2019-05-20T20:05:50.674Z,48.50
2019-05-20T20:08:22.781Z,47.77
2019-05-20T20:10:52.890Z,48.17
2019-05-20T20:13:25.605Z,47.20
2019-05-20T20:15:55.023Z,44.60
2019-05-20T20:18:24.474Z,47.63
2019-05-20T20:20:53.658Z,45.27
2019-05-20T20:24:19.825Z,47.03
2019-05-20T20:26:49.510Z,46.23
2019-05-20T20:29:42.489Z,48.77
2019-05-20T20:32:14.986Z,46.50
2019-05-20T20:34:47.704Z,49.23
2019-05-20T20:37:26.154Z,49.50
2019-05-20T20:40:11.664Z,48.07
2019-05-20T20:42:55.847Z,48.10
2019-05-20T20:45:42.094Z,49.80
2019-05-20T20:48:16.727Z,46.00
2019-05-20T20:50:48.467Z,44.57
2019-05-20T20:53:30.517Z,41.90
2019-05-20T20:56:04.655Z,45.43
2019-05-20T20:58:34.238Z,45.10
2019-05-20T21:01:05.791Z,46.73
2019-05-20T21:03:35.240Z,50.23
2019-05-20T21:06:04.314Z,49.73
2019-05-20T21:08:33.579Z,49.17
2019-05-20T21:11:05.686Z,50.60
2019-05-20T21:13:37.686Z,49.63
2019-05-20T21:16:07.123Z,47.47
2019-05-20T21:18:36.394Z,44.97
2019-05-20T21:21:05.555Z,44.90
2019-05-20T21:23:37.909Z,46.60
2019-05-20T21:26:08.861Z,48.57
2019-05-20T21:28:37.768Z,49.50
2019-05-20T21:31:09.774Z,48.80
2019-05-20T21:33:42.901Z,51.03
2019-05-20T21:36:11.832Z,51.23
2019-05-20T21:38:46.900Z,52.97
2019-05-20T21:41:18.898Z,52.90
2019-05-20T21:43:51.388Z,56.53
2019-05-20T21:46:22.045Z,55.20
2019-05-20T21:48:51.213Z,57.10
2019-05-20T21:51:24.006Z,57.63
2019-05-20T21:54:02.316Z,60.63
2019-05-20T21:56:31.548Z,59.70
2019-05-20T21:59:03.472Z,59.17
2019-05-20T22:01:32.785Z,59.90
2019-05-20T22:04:01.882Z,58.00
2019-05-20T22:06:33.773Z,59.30
2019-05-20T22:09:12.880Z,58.10
2019-05-20T22:11:47.508Z,59.00
2019-05-20T22:14:16.667Z,59.47
2019-05-20T22:16:48.915Z,61.57
2019-05-20T22:19:21.323Z,60.63
2019-05-20T22:21:58.170Z,56.53
2019-05-20T22:24:30.079Z,55.87
2019-05-20T22:26:59.552Z,56.33
2019-05-20T22:29:28.955Z,53.93
2019-05-20T22:32:04.211Z,54.07
2019-05-20T22:34:33.780Z,55.53
2019-05-20T22:37:02.991Z,56.27
2019-05-20T22:39:32.056Z,54.77
2019-05-20T22:42:02.311Z,56.07
2019-05-20T22:44:36.192Z,58.27
2019-05-20T22:47:08.105Z,57.17
2019-05-20T22:49:37.717Z,57.40
2019-05-20T22:52:06.915Z,57.23
2019-05-20T22:54:36.009Z,57.73
2019-05-20T22:57:05.488Z,57.37
2019-05-20T22:59:34.591Z,60.73
2019-05-20T23:02:03.746Z,59.07
2019-05-20T23:04:32.837Z,58.23
2019-05-20T23:07:11.255Z,62.17
2019-05-20T23:09:40.297Z,61.70
2019-05-20T23:12:09.213Z,62.50
2019-05-20T23:14:38.470Z,63.10
2019-05-20T23:17:10.406Z,64.73
2019-05-20T23:19:41.987Z,59.67
2019-05-20T23:22:11.185Z,60.03
2019-05-20T23:24:40.187Z,61.17
2019-05-20T23:27:12.558Z,62.40
2019-05-20T23:29:41.741Z,61.97
2019-05-20T23:32:19.206Z,58.03
2019-05-20T23:34:48.462Z,57.20
2019-05-20T23:37:17.905Z,58.50
2019-05-20T23:39:47.166Z,57.53
2019-05-20T23:42:19.807Z,59.80
2019-05-20T23:44:49.540Z,58.57
2019-05-20T23:47:18.770Z,57.03
2019-05-20T23:49:47.870Z,53.83
2019-05-20T23:52:18.026Z,52.37
2019-05-20T23:54:47.365Z,51.77
2019-05-20T23:57:16.919Z,49.50
2019-05-20T23:59:45.903Z,47.47
